Time;durP1;ratioP1;P1;durP2;ratioP2;P2;SDS_P1;SDS_P2;PMS_P1;PMS_P2;Temp;Humidity;BMP_temperature;BMP_pressure;BME280_temperature;BME280_humidity;BME280_pressure;Samples;Min_cycle;Max_cycle;Signal;HPM_P1;HPM_P2
2023/08/31 01:35:24;;;;;;;1.60;1.50;;;18.30;87.40;17.30;95900.00;;;;5017921;28;20243;-81
2023/08/31 01:37:56;;;;;;;1.70;1.60;;;18.30;87.60;17.30;95912.00;;;;5023519;28;20234;-81
2023/08/31 01:40:35;;;;;;;1.83;1.60;;;18.30;88.30;17.30;95914.00;;;;5020522;28;20194;-81
2023/08/31 01:43:04;;;;;;;1.83;1.73;;;18.30;88.00;17.30;95916.00;;;;5026113;28;20200;-80
2023/08/31 01:45:33;;;;;;;1.30;1.23;;;18.30;88.20;17.30;95918.00;;;;5022287;28;20591;-80
2023/08/31 01:48:01;;;;;;;1.77;1.67;;;18.30;88.20;17.30;95916.00;;;;5016211;28;20232;-80
2023/08/31 01:50:29;;;;;;;1.60;1.50;;;18.30;89.00;17.30;95915.00;;;;5016169;28;20214;-80
2023/08/31 01:52:56;;;;;;;1.50;1.40;;;18.20;88.10;17.30;95916.00;;;;5028269;28;20215;-80
2023/08/31 01:55:25;;;;;;;1.80;1.70;;;18.30;88.20;17.30;95917.00;;;;5019298;28;20217;-80
2023/08/31 01:57:52;;;;;;;1.80;1.70;;;18.20;87.90;17.30;95916.00;;;;5014943;28;20201;-81
2023/08/31 02:00:21;;;;;;;1.53;1.43;;;18.20;87.90;17.30;95920.00;;;;5030906;28;20224;-80
2023/08/31 02:02:48;;;;;;;1.70;1.60;;;18.20;88.00;17.30;95916.00;;;;5021791;28;20193;-81
2023/08/31 02:05:15;;;;;;;1.80;1.70;;;18.20;88.20;17.30;95928.00;;;;5015304;28;20229;-80
2023/08/31 02:07:44;;;;;;;1.90;1.80;;;18.20;88.30;17.30;95924.00;;;;5026313;28;20582;-80
2023/08/31 02:10:11;;;;;;;1.97;1.87;;;18.20;88.40;17.40;95936.00;;;;5025554;28;20209;-80
2023/08/31 02:12:39;;;;;;;1.90;1.80;;;18.20;88.70;17.40;95931.00;;;;5020645;28;20659;-81
2023/08/31 02:15:07;;;;;;;2.03;1.93;;;18.20;88.80;17.40;95943.00;;;;5026371;28;20218;-80
2023/08/31 02:17:35;;;;;;;1.67;1.60;;;18.20;88.90;17.40;95954.00;;;;5021465;28;20201;-81
2023/08/31 02:20:04;;;;;;;2.13;1.93;;;18.30;89.00;17.50;95956.00;;;;5022774;28;20201;-80
2023/08/31 02:22:32;;;;;;;2.10;2.00;;;18.30;89.20;17.50;95946.00;;;;5031010;28;20201;-80
2023/08/31 02:25:01;;;;;;;2.50;2.00;;;18.30;89.10;17.50;95948.00;;;;5022332;28;20201;-80
2023/08/31 02:27:28;;;;;;;2.37;2.17;;;18.30;89.10;17.50;95965.00;;;;5026699;28;20194;-80
2023/08/31 02:29:55;;;;;;;2.10;2.00;;;18.40;90.00;17.60;95956.00;;;;5024674;28;20221;-80
2023/08/31 02:32:23;;;;;;;2.33;2.13;;;18.40;89.30;17.60;95971.00;;;;5023351;28;20686;-80
2023/08/31 02:34:51;;;;;;;2.40;2.17;;;18.40;89.20;17.60;95964.00;;;;5027622;28;20194;-80
2023/08/31 02:37:18;;;;;;;2.10;2.00;;;18.40;89.20;17.70;95971.00;;;;5024668;28;20205;-80
2023/08/31 02:39:46;;;;;;;2.10;2.00;;;18.50;89.40;17.70;95971.00;;;;5032617;28;20248;-80
2023/08/31 02:42:15;;;;;;;2.23;2.13;;;18.50;89.40;17.70;95975.00;;;;5030774;28;20212;-80
2023/08/31 02:44:42;;;;;;;2.20;2.00;;;18.50;89.20;17.70;95966.00;;;;5025513;28;20204;-80
2023/08/31 02:47:10;;;;;;;2.63;2.50;;;18.50;89.20;17.80;95966.00;;;;5015086;28;20687;-80
2023/08/31 02:49:37;;;;;;;2.40;2.30;;;18.50;89.10;17.80;95973.00;;;;5025684;28;20220;-80
2023/08/31 02:52:04;;;;;;;2.27;2.07;;;18.60;89.20;17.80;95975.00;;;;5027711;28;20225;-80
2023/08/31 02:54:32;;;;;;;2.10;2.00;;;18.60;89.30;17.80;95975.00;;;;5026611;28;20709;-80
2023/08/31 02:57:00;;;;;;;2.50;2.30;;;18.60;89.10;17.80;95975.00;;;;5024442;28;20210;-80
2023/08/31 02:59:28;;;;;;;2.23;2.13;;;18.60;89.10;17.80;95978.00;;;;5023536;28;20202;-80
2023/08/31 03:01:55;;;;;;;2.10;2.00;;;18.60;89.00;17.80;95963.00;;;;5023994;28;20202;-80
2023/08/31 03:04:23;;;;;;;2.30;2.20;;;18.60;88.90;17.80;95962.00;;;;5014988;28;20198;-79
2023/08/31 03:06:50;;;;;;;2.40;2.20;;;18.70;88.90;17.80;95960.00;;;;5034415;28;20224;-79
2023/08/31 03:09:17;;;;;;;2.33;2.23;;;18.70;88.60;17.90;95956.00;;;;5026399;28;20744;-80
2023/08/31 03:11:44;;;;;;;3.03;2.33;;;18.70;88.50;17.90;95952.00;;;;5026312;28;20186;-80
2023/08/31 03:14:11;;;;;;;2.37;2.17;;;18.70;88.50;17.90;95953.00;;;;5034476;28;20197;-80
2023/08/31 03:16:40;;;;;;;2.27;2.13;;;18.70;88.50;17.90;95961.00;;;;5033950;28;20308;-80
2023/08/31 03:19:07;;;;;;;2.40;2.20;;;18.70;88.60;17.90;95960.00;;;;5036113;28;20211;-80
2023/08/31 03:21:34;;;;;;;2.50;2.30;;;18.70;88.70;17.90;95972.00;;;;5019745;28;20194;-80
2023/08/31 03:24:01;;;;;;;2.10;2.00;;;18.70;88.80;17.90;95966.00;;;;5036133;28;20203;-80
2023/08/31 03:26:30;;;;;;;2.10;2.00;;;18.70;88.60;17.90;95964.00;;;;5026257;28;20221;-80
2023/08/31 03:28:57;;;;;;;1.93;1.83;;;18.70;88.60;17.90;95963.00;;;;5031738;28;20268;-80
2023/08/31 03:31:24;;;;;;;2.20;2.10;;;18.70;88.60;17.90;95975.00;;;;5024374;28;20275;-79
2023/08/31 03:33:53;;;;;;;2.13;2.03;;;18.70;88.60;17.90;95962.00;;;;5015261;28;20651;-80
2023/08/31 03:36:20;;;;;;;2.20;2.10;;;18.70;88.40;17.90;95954.00;;;;5018851;28;20213;-79
2023/08/31 03:38:47;;;;;;;2.07;1.97;;;18.70;88.50;17.90;95951.00;;;;5023746;28;20569;-80
2023/08/31 03:41:14;;;;;;;2.07;1.97;;;18.70;88.40;17.90;95960.00;;;;5016475;28;20199;-80
2023/08/31 03:43:42;;;;;;;2.30;2.20;;;18.70;88.30;17.90;95978.00;;;;5025321;28;20686;-79
2023/08/31 03:46:09;;;;;;;2.33;2.20;;;18.70;88.30;17.90;95975.00;;;;5021592;28;20218;-80
2023/08/31 03:48:36;;;;;;;2.10;2.00;;;18.70;88.30;17.90;95986.00;;;;5016203;28;20226;-79
2023/08/31 03:51:05;;;;;;;2.63;2.47;;;18.70;88.30;17.90;96000.00;;;;5020698;28;20216;-80
2023/08/31 03:53:32;;;;;;;2.30;2.20;;;18.70;88.30;17.80;96006.00;;;;5018497;28;20568;-79
2023/08/31 03:55:59;;;;;;;2.17;2.07;;;18.70;88.40;17.90;96011.00;;;;5014956;28;20314;-79
2023/08/31 03:58:26;;;;;;;2.30;2.10;;;18.70;88.40;17.90;96014.00;;;;5023237;28;20651;-80
2023/08/31 04:00:54;;;;;;;2.57;2.47;;;18.70;88.40;17.90;96020.00;;;;5031543;28;20648;-79
2023/08/31 04:03:22;;;;;;;2.47;2.37;;;18.70;88.40;17.90;96022.00;;;;5014690;28;20222;-79
2023/08/31 04:05:49;;;;;;;2.20;2.10;;;18.70;88.30;17.90;96024.00;;;;5029926;28;20220;-80
2023/08/31 04:08:18;;;;;;;2.63;2.40;;;18.70;88.50;17.90;96018.00;;;;5026272;28;20198;-79
2023/08/31 04:10:45;;;;;;;2.67;2.47;;;18.70;88.30;17.90;96024.00;;;;5027118;28;20645;-80
2023/08/31 04:13:12;;;;;;;2.13;2.03;;;18.70;88.40;17.90;96029.00;;;;5020878;28;20699;-80
2023/08/31 04:15:39;;;;;;;2.30;2.20;;;18.70;88.30;17.90;96021.00;;;;5023659;28;20595;-79
2023/08/31 04:18:06;;;;;;;2.10;2.00;;;18.70;88.20;17.90;96016.00;;;;5023535;28;20190;-79
2023/08/31 04:20:34;;;;;;;2.23;2.13;;;18.70;88.20;17.90;96025.00;;;;5031742;28;20672;-79
2023/08/31 04:23:02;;;;;;;2.43;2.33;;;18.70;88.00;17.90;96036.00;;;;5023479;28;20200;-79
2023/08/31 04:25:31;;;;;;;2.33;2.20;;;18.70;88.00;17.90;96039.00;;;;5022688;28;20225;-79
2023/08/31 04:27:59;;;;;;;2.17;2.07;;;18.70;87.80;17.90;96043.00;;;;5026056;28;20251;-79
2023/08/31 04:30:26;;;;;;;2.20;2.10;;;18.70;87.90;17.80;96054.00;;;;5026467;28;20221;-79
2023/08/31 04:32:53;;;;;;;2.20;2.10;;;18.70;87.70;17.80;96050.00;;;;5021809;28;20648;-80
2023/08/31 04:35:21;;;;;;;2.20;2.10;;;18.70;87.70;17.80;96058.00;;;;5014710;28;20570;-79
2023/08/31 04:37:48;;;;;;;2.27;2.17;;;18.60;87.70;17.80;96064.00;;;;5030378;28;20299;-79
2023/08/31 04:40:16;;;;;;;2.17;2.07;;;18.60;87.70;17.80;96061.00;;;;5027852;28;20297;-79
2023/08/31 04:42:45;;;;;;;2.10;2.00;;;18.60;87.80;17.80;96062.00;;;;5031318;28;20205;-79
2023/08/31 04:45:12;;;;;;;2.10;2.00;;;18.60;87.60;17.80;96059.00;;;;5025912;28;20210;-79
2023/08/31 04:47:39;;;;;;;2.37;2.27;;;18.60;87.80;17.80;96066.00;;;;5016474;28;20621;-79
2023/08/31 04:50:08;;;;;;;2.20;2.10;;;18.60;87.80;17.70;96073.00;;;;5019173;28;20609;-79
2023/08/31 04:52:36;;;;;;;3.13;1.97;;;18.60;87.80;17.70;96072.00;;;;5020686;28;20201;-79
2023/08/31 04:55:04;;;;;;;2.30;2.10;;;18.60;88.30;17.70;96067.00;;;;5020358;28;20206;-79
2023/08/31 04:57:31;;;;;;;2.10;2.00;;;18.60;87.70;17.70;96077.00;;;;5018818;28;20198;-79
2023/08/31 05:00:00;;;;;;;2.10;2.00;;;18.60;87.80;17.70;96083.00;;;;5015146;28;20849;-80
2023/08/31 05:02:28;;;;;;;2.10;1.90;;;18.60;87.70;17.70;96078.00;;;;5023712;28;20200;-80
2023/08/31 05:04:56;;;;;;;2.30;2.20;;;18.60;87.90;17.70;96081.00;;;;5023974;28;20591;-79
2023/08/31 05:07:23;;;;;;;2.20;2.10;;;18.60;87.90;17.70;96083.00;;;;5027692;28;20201;-79
2023/08/31 05:09:50;;;;;;;3.00;2.67;;;18.60;88.00;17.70;96087.00;;;;5022277;28;20692;-79
2023/08/31 05:12:17;;;;;;;2.40;2.20;;;18.60;88.00;17.70;96081.00;;;;5019476;28;20201;-79
2023/08/31 05:14:44;;;;;;;2.20;2.10;;;18.60;88.20;17.70;96084.00;;;;5022790;28;20198;-79
2023/08/31 05:17:13;;;;;;;2.60;2.50;;;18.60;89.00;17.80;96096.00;;;;5028038;28;20204;-79
2023/08/31 05:19:40;;;;;;;3.00;2.80;;;18.60;88.20;17.70;96098.00;;;;5025241;28;20580;-79
2023/08/31 05:22:07;;;;;;;2.93;2.73;;;18.60;88.30;17.80;96098.00;;;;5022343;28;20224;-79
2023/08/31 05:24:34;;;;;;;2.53;2.40;;;18.60;88.30;17.80;96097.00;;;;5021349;28;20545;-79
2023/08/31 05:27:02;;;;;;;3.20;2.47;;;18.60;88.20;17.80;96104.00;;;;5025136;28;20217;-79
2023/08/31 05:29:31;;;;;;;4.33;2.90;;;18.60;88.30;17.80;96105.00;;;;5016192;28;20221;-80
2023/08/31 05:31:58;;;;;;;2.43;2.33;;;18.60;88.30;17.80;96113.00;;;;5020942;28;20191;-79
2023/08/31 05:34:27;;;;;;;2.60;2.40;;;18.60;88.30;17.80;96120.00;;;;5029053;28;20200;-81
2023/08/31 05:36:54;;;;;;;2.80;2.60;;;18.60;88.10;17.80;96126.00;;;;5015250;28;20224;-80
2023/08/31 05:39:22;;;;;;;2.53;2.33;;;18.60;89.00;17.80;96127.00;;;;5020860;28;20197;-80
2023/08/31 05:41:49;;;;;;;2.43;2.33;;;18.60;88.40;17.80;96127.00;;;;5022270;28;20190;-82
2023/08/31 05:44:16;;;;;;;2.60;2.50;;;18.70;88.50;17.90;96132.00;;;;5029106;28;20193;-83
2023/08/31 05:46:44;;;;;;;2.60;2.40;;;18.70;88.50;17.90;96137.00;;;;5041880;28;20310;-82
2023/08/31 05:49:11;;;;;;;2.90;2.70;;;18.70;88.60;17.90;96148.00;;;;5039113;28;20229;-83
2023/08/31 05:51:40;;;;;;;2.60;2.50;;;18.70;88.60;18.00;96147.00;;;;5021898;28;20603;-82
2023/08/31 05:54:11;;;;;;;2.80;2.57;;;18.80;89.40;18.00;96142.00;;;;5022517;28;20229;-81
2023/08/31 05:56:40;;;;;;;2.40;2.30;;;18.80;88.60;18.00;96142.00;;;;5024336;28;20222;-82
2023/08/31 05:59:07;;;;;;;2.57;2.40;;;18.80;88.60;18.10;96138.00;;;;5029698;28;20198;-82
2023/08/31 06:01:37;;;;;;;2.70;2.53;;;18.90;88.50;18.10;96135.00;;;;5022840;28;20203;-81
2023/08/31 06:04:05;;;;;;;2.80;2.60;;;18.90;88.40;18.10;96136.00;;;;5020425;28;20642;-82
2023/08/31 06:06:33;;;;;;;2.73;2.53;;;18.90;88.10;18.10;96129.00;;;;5007093;28;20217;-81
2023/08/31 06:09:03;;;;;;;2.23;2.13;;;18.90;87.90;18.20;96140.00;;;;5029461;28;20193;-82
2023/08/31 06:11:30;;;;;;;2.63;2.43;;;18.90;87.70;18.20;96140.00;;;;5027888;28;20244;-81
2023/08/31 06:13:57;;;;;;;2.20;2.10;;;18.90;87.80;18.20;96141.00;;;;5019890;28;20203;-81
2023/08/31 06:16:25;;;;;;;2.50;2.30;;;19.00;88.00;18.20;96137.00;;;;5022064;28;20214;-82
2023/08/31 06:18:53;;;;;;;2.00;1.90;;;19.00;88.10;18.20;96141.00;;;;5028746;28;20315;-82
2023/08/31 06:21:20;;;;;;;2.77;2.57;;;19.00;88.00;18.20;96140.00;;;;5027058;28;20280;-82
2023/08/31 06:23:47;;;;;;;2.00;1.90;;;19.00;88.00;18.20;96148.00;;;;5025511;28;20579;-81
2023/08/31 06:26:15;;;;;;;2.07;1.97;;;19.00;87.90;18.30;96157.00;;;;5028555;28;20289;-82
2023/08/31 06:28:44;;;;;;;2.20;2.10;;;19.10;87.50;18.30;96152.00;;;;5025869;28;20197;-82
2023/08/31 06:31:11;;;;;;;2.00;1.90;;;19.10;87.40;18.30;96146.00;;;;5011194;28;20229;-82
2023/08/31 06:33:38;;;;;;;2.50;2.30;;;19.10;87.60;18.30;96154.00;;;;5023184;28;20194;-82
2023/08/31 06:36:05;;;;;;;1.97;1.87;;;19.10;87.70;18.30;96157.00;;;;5018847;28;20320;-82
2023/08/31 06:38:33;;;;;;;2.83;1.90;;;19.10;87.50;18.30;96173.00;;;;5015106;28;20733;-82
2023/08/31 06:41:00;;;;;;;2.13;1.93;;;19.10;87.60;18.30;96170.00;;;;5026143;28;20662;-82
2023/08/31 06:43:28;;;;;;;3.30;2.17;;;19.10;87.70;18.30;96169.00;;;;5017278;28;20680;-82
2023/08/31 06:45:56;;;;;;;1.83;1.73;;;19.10;87.70;18.40;96168.00;;;;5020160;28;20224;-82
2023/08/31 06:48:24;;;;;;;3.30;1.80;;;19.10;87.60;18.40;96172.00;;;;5029485;28;20213;-82
2023/08/31 06:50:51;;;;;;;2.03;1.93;;;19.20;87.70;18.40;96178.00;;;;5020809;28;20222;-82
2023/08/31 06:53:18;;;;;;;2.33;2.13;;;19.20;87.80;18.40;96179.00;;;;5014567;28;20210;-82
2023/08/31 06:55:46;;;;;;;1.90;1.80;;;19.20;87.90;18.50;96190.00;;;;5024772;28;20305;-82
2023/08/31 06:58:13;;;;;;;1.97;1.47;;;19.20;87.90;18.50;96190.00;;;;5023454;28;20213;-82
2023/08/31 07:00:42;;;;;;;1.97;1.87;;;19.20;87.90;18.50;96196.00;;;;5025044;28;20203;-82
2023/08/31 07:03:09;;;;;;;1.77;1.67;;;19.30;88.00;18.50;96198.00;;;;5037493;28;20252;-82
2023/08/31 07:05:42;;;;;;;1.50;1.40;;;19.30;88.20;18.60;96182.00;;;;5030579;28;20289;-82
2023/08/31 07:08:09;;;;;;;1.57;1.40;;;19.30;87.50;18.60;96195.00;;;;5026674;28;20225;-82
2023/08/31 07:10:37;;;;;;;1.80;1.70;;;19.40;87.40;18.60;96195.00;;;;5029496;28;20310;-82
2023/08/31 07:13:04;;;;;;;1.80;1.70;;;19.40;87.60;18.70;96195.00;;;;5037818;28;20204;-82
2023/08/31 07:15:32;;;;;;;1.73;1.63;;;19.40;87.60;18.70;96197.00;;;;5032216;28;20227;-81
2023/08/31 07:18:01;;;;;;;1.70;1.60;;;19.40;87.40;18.70;96198.00;;;;5040107;28;20208;-82
2023/08/31 07:20:28;;;;;;;1.80;1.70;;;19.50;87.00;18.80;96207.00;;;;5032907;28;20225;-82
2023/08/31 07:22:55;;;;;;;1.80;1.70;;;19.50;86.70;18.80;96200.00;;;;5034820;28;20201;-81
2023/08/31 07:25:22;;;;;;;1.77;1.67;;;19.50;86.70;18.80;96200.00;;;;5035575;28;20221;-82
2023/08/31 07:27:49;;;;;;;1.87;1.43;;;19.50;86.60;18.80;96196.00;;;;5039866;28;20190;-82
2023/08/31 07:30:17;;;;;;;1.47;1.37;;;19.50;86.80;18.80;96201.00;;;;5035969;28;20293;-82
2023/08/31 07:32:44;;;;;;;2.53;1.40;;;19.60;87.00;18.90;96204.00;;;;5032430;28;20204;-82
2023/08/31 07:35:13;;;;;;;1.77;1.50;;;19.60;86.60;18.90;96209.00;;;;5039099;28;20218;-82
2023/08/31 07:37:41;;;;;;;1.43;1.33;;;19.60;86.10;18.90;96208.00;;;;5033973;28;20193;-82
2023/08/31 07:40:10;;;;;;;2.33;1.57;;;19.60;86.60;18.90;96217.00;;;;5031168;28;20281;-82
2023/08/31 07:42:38;;;;;;;1.70;1.60;;;19.60;87.00;18.90;96217.00;;;;5029572;28;20666;-82
2023/08/31 07:45:07;;;;;;;1.60;1.50;;;19.70;87.30;18.90;96222.00;;;;5038886;28;20301;-82
2023/08/31 07:47:36;;;;;;;1.90;1.70;;;19.70;86.90;18.90;96228.00;;;;5023006;28;20652;-82
2023/08/31 07:50:05;;;;;;;1.60;1.50;;;19.70;86.80;18.90;96227.00;;;;5036639;28;20227;-82
2023/08/31 07:52:34;;;;;;;1.30;1.20;;;19.70;87.00;19.00;96239.00;;;;5038329;28;20288;-81
2023/08/31 07:55:02;;;;;;;1.70;1.40;;;19.70;86.40;19.00;96230.00;;;;5040956;28;20214;-82
2023/08/31 07:57:29;;;;;;;2.07;1.70;;;19.70;86.60;19.00;96233.00;;;;5027393;28;20194;-82
2023/08/31 07:59:56;;;;;;;1.40;1.30;;;19.70;86.70;19.00;96229.00;;;;5031916;28;20678;-82
2023/08/31 08:02:23;;;;;;;2.23;1.40;;;19.70;86.30;19.10;96239.00;;;;5038625;28;20195;-82
2023/08/31 08:04:51;;;;;;;2.07;1.57;;;19.80;86.50;19.10;96238.00;;;;5032555;28;20199;-82
2023/08/31 08:07:18;;;;;;;1.87;1.77;;;19.80;86.70;19.10;96242.00;;;;5028200;28;20281;-82
2023/08/31 08:09:46;;;;;;;1.50;1.37;;;19.80;86.80;19.20;96240.00;;;;5029229;28;20203;-82
2023/08/31 08:12:13;;;;;;;1.77;1.67;;;19.90;86.20;19.20;96246.00;;;;5020482;28;20198;-82
2023/08/31 08:14:41;;;;;;;1.50;1.40;;;19.90;86.50;19.30;96248.00;;;;5028407;28;20261;-82
2023/08/31 08:17:08;;;;;;;1.80;1.43;;;19.90;86.40;19.30;96244.00;;;;5030414;28;20189;-82
2023/08/31 08:19:36;;;;;;;1.30;1.30;;;20.00;86.50;19.40;96247.00;;;;5032402;28;20203;-82
2023/08/31 08:22:03;;;;;;;1.40;1.30;;;20.00;85.70;19.40;96248.00;;;;5034339;28;20211;-82
2023/08/31 08:24:30;;;;;;;2.17;1.37;;;20.00;85.30;19.40;96249.00;;;;5030839;28;20251;-82
2023/08/31 08:26:59;;;;;;;1.43;1.33;;;20.10;85.30;19.40;96254.00;;;;5028031;28;20224;-82
2023/08/31 08:29:27;;;;;;;1.20;1.10;;;20.10;85.50;19.50;96259.00;;;;5035079;28;20193;-82
2023/08/31 08:31:54;;;;;;;1.73;1.10;;;20.10;85.20;19.40;96264.00;;;;5032452;28;20224;-82
2023/08/31 08:34:21;;;;;;;2.00;1.10;;;20.10;84.80;19.40;96265.00;;;;5028489;28;20206;-82
2023/08/31 08:36:48;;;;;;;2.43;1.23;;;20.10;84.70;19.40;96268.00;;;;5024545;28;20272;-82
2023/08/31 08:39:15;;;;;;;1.50;1.40;;;20.10;84.70;19.40;96262.00;;;;5027370;28;20662;-82
2023/08/31 08:41:44;;;;;;;2.40;1.60;;;20.10;84.50;19.40;96271.00;;;;5024647;28;20217;-82
2023/08/31 08:44:17;;;;;;;1.97;1.43;;;20.10;84.60;19.40;96273.00;;;;5030952;28;20205;-82
2023/08/31 08:46:48;;;;;;;1.57;1.20;;;20.10;84.60;19.40;96284.00;;;;5016452;28;20934;-82
2023/08/31 08:49:17;;;;;;;1.30;1.20;;;20.10;85.10;19.40;96281.00;;;;5031795;28;20879;-82
2023/08/31 08:51:46;;;;;;;1.77;1.33;;;20.10;85.20;19.40;96290.00;;;;5029467;28;20227;-82
2023/08/31 08:54:14;;;;;;;1.30;1.20;;;20.10;85.00;19.40;96287.00;;;;5030664;28;20220;-82
2023/08/31 08:56:41;;;;;;;1.47;1.37;;;20.10;85.00;19.40;96289.00;;;;5032533;28;20305;-82
2023/08/31 08:59:10;;;;;;;1.43;1.30;;;20.10;84.90;19.40;96285.00;;;;5046846;28;20279;-81
2023/08/31 09:01:38;;;;;;;1.47;1.33;;;20.10;84.70;19.40;96283.00;;;;5042920;28;20209;-82
2023/08/31 09:04:06;;;;;;;1.40;1.30;;;20.10;84.20;19.40;96288.00;;;;5031186;28;20209;-82
2023/08/31 09:06:34;;;;;;;1.73;1.30;;;20.10;84.50;19.40;96292.00;;;;5032756;28;20229;-82
2023/08/31 09:09:03;;;;;;;1.47;1.37;;;20.10;85.00;19.40;96299.00;;;;5033998;28;20578;-82
2023/08/31 09:11:30;;;;;;;3.00;1.50;;;20.10;85.10;19.30;96303.00;;;;5031947;28;20256;-82
2023/08/31 09:13:58;;;;;;;1.40;1.30;;;20.10;84.50;19.30;96298.00;;;;5037072;28;20203;-81
2023/08/31 09:16:29;;;;;;;2.00;1.40;;;20.10;84.00;19.30;96305.00;;;;5038156;28;20221;-81
2023/08/31 09:18:59;;;;;;;1.93;1.30;;;20.00;83.80;19.30;96309.00;;;;5034257;28;20206;-81
2023/08/31 09:21:36;;;;;;;1.43;1.20;;;20.00;83.50;19.30;96311.00;;;;5030155;28;20198;-81
2023/08/31 09:24:07;;;;;;;2.43;1.10;;;20.00;83.50;19.30;96302.00;;;;5043623;28;20267;-82
2023/08/31 09:26:42;;;;;;;1.17;1.10;;;20.00;84.70;19.30;96313.00;;;;5028460;28;20259;-82
2023/08/31 09:29:11;;;;;;;1.53;1.40;;;20.00;84.00;19.30;96313.00;;;;5026110;28;20196;-82
2023/08/31 09:31:38;;;;;;;1.40;1.30;;;20.00;84.70;19.30;96307.00;;;;5040097;28;20225;-82
2023/08/31 09:34:07;;;;;;;2.00;1.20;;;20.00;84.90;19.30;96297.00;;;;5045440;28;20201;-82
2023/08/31 09:36:34;;;;;;;1.53;1.40;;;20.00;84.70;19.30;96292.00;;;;5041654;28;20234;-82
2023/08/31 09:39:02;;;;;;;1.57;1.27;;;20.00;85.00;19.40;96298.00;;;;5034947;28;20205;-81
2023/08/31 09:41:29;;;;;;;1.20;1.10;;;20.10;84.90;19.40;96304.00;;;;5050215;28;20197;-81
2023/08/31 09:43:56;;;;;;;2.03;1.03;;;20.10;84.90;19.40;96303.00;;;;5049257;28;20197;-82
2023/08/31 09:46:25;;;;;;;2.00;1.33;;;20.10;84.80;19.40;96304.00;;;;5048209;28;20323;-82
2023/08/31 09:48:54;;;;;;;3.70;1.87;;;20.10;84.70;19.50;96312.00;;;;5027515;28;20278;-81
2023/08/31 09:51:27;;;;;;;2.30;1.43;;;20.10;84.50;19.50;96312.00;;;;5051494;28;20217;-81
2023/08/31 09:53:59;;;;;;;1.40;1.30;;;20.20;83.90;19.60;96307.00;;;;5041163;28;20267;-81
2023/08/31 09:56:31;;;;;;;1.20;1.10;;;20.20;84.80;19.60;96305.00;;;;5044258;28;20221;-81
2023/08/31 09:58:58;;;;;;;1.47;1.20;;;20.20;84.40;19.70;96308.00;;;;5044244;28;20225;-81
2023/08/31 10:01:26;;;;;;;2.07;1.30;;;20.30;84.70;19.70;96297.00;;;;5047919;28;20280;-81
2023/08/31 10:03:53;;;;;;;1.43;1.20;;;20.30;85.20;19.80;96304.00;;;;5045055;28;20201;-81
2023/08/31 10:06:24;;;;;;;2.17;1.30;;;20.30;84.70;19.80;96304.00;;;;5041893;28;20226;-82
2023/08/31 10:08:52;;;;;;;1.80;1.20;;;20.40;84.50;19.90;96312.00;;;;5032623;28;20212;-81
2023/08/31 10:11:20;;;;;;;2.53;1.20;;;20.50;84.80;19.90;96306.00;;;;5045981;28;20216;-81
2023/08/31 10:13:50;;;;;;;2.83;1.20;;;20.50;84.70;20.00;96299.00;;;;5034654;28;20665;-82
2023/08/31 10:16:19;;;;;;;5.73;1.60;;;20.60;83.80;20.10;96303.00;;;;5009110;28;20229;-81
2023/08/31 10:18:47;;;;;;;3.43;1.40;;;20.70;83.00;20.20;96303.00;;;;5017305;28;20204;-82
2023/08/31 10:21:19;;;;;;;1.30;1.20;;;20.70;84.40;20.30;96298.00;;;;5042978;28;20652;-82
2023/08/31 10:23:48;;;;;;;1.50;1.20;;;20.80;84.60;20.40;96299.00;;;;5030032;28;20218;-82
2023/08/31 10:26:26;;;;;;;2.50;1.30;;;20.90;85.30;20.50;96310.00;;;;5025354;28;20218;-82
2023/08/31 10:28:53;;;;;;;1.57;1.20;;;21.00;83.80;20.60;96322.00;;;;5018186;28;20207;-82
2023/08/31 10:31:23;;;;;;;1.13;1.07;;;21.10;84.10;20.60;96310.00;;;;5019017;28;20243;-82
2023/08/31 10:33:58;;;;;;;2.30;1.33;;;21.20;83.60;20.60;96302.00;;;;5034301;28;20647;-82
2023/08/31 10:36:38;;;;;;;2.07;1.43;;;21.20;81.40;20.60;96301.00;;;;5036525;28;20220;-82
2023/08/31 10:39:15;;;;;;;1.30;1.17;;;21.30;80.10;20.70;96304.00;;;;5027031;28;20284;-82
2023/08/31 10:41:52;;;;;;;2.17;1.00;;;21.30;79.30;20.70;96306.00;;;;5032863;28;20196;-82
2023/08/31 10:44:22;;;;;;;2.03;1.17;;;21.30;80.90;20.70;96296.00;;;;5030244;28;20225;-82
2023/08/31 10:46:51;;;;;;;4.17;1.40;;;21.30;80.00;20.70;96307.00;;;;5044091;28;20627;-82
2023/08/31 10:49:21;;;;;;;1.87;1.30;;;21.30;80.20;20.60;96306.00;;;;5030468;28;20194;-82
2023/08/31 10:51:55;;;;;;;1.63;1.53;;;21.30;80.00;20.60;96304.00;;;;5041257;28;20249;-82
2023/08/31 10:54:27;;;;;;;2.40;1.50;;;21.30;79.30;20.60;96295.00;;;;5030083;28;20198;-82
2023/08/31 10:57:05;;;;;;;2.90;1.13;;;21.20;78.70;20.50;96292.00;;;;5041238;28;20220;-82
2023/08/31 10:59:51;;;;;;;1.20;1.10;;;21.20;76.90;20.50;96299.00;;;;5043784;28;20357;-82
2023/08/31 11:02:35;;;;;;;2.27;1.20;;;21.20;76.30;20.40;96292.00;;;;5034347;28;20256;-82
2023/08/31 11:05:07;;;;;;;1.37;1.00;;;21.10;78.70;20.40;96290.00;;;;5037023;28;20236;-83
2023/08/31 11:07:36;;;;;;;2.23;1.60;;;21.10;80.20;20.40;96287.00;;;;5037653;28;20201;-82
2023/08/31 11:10:22;;;;;;;2.17;1.20;;;21.10;79.80;20.30;96292.00;;;;5038876;28;20251;-82
2023/08/31 11:12:52;;;;;;;1.30;1.20;;;21.00;77.40;20.30;96302.00;;;;5031016;28;20732;-82
2023/08/31 11:15:22;;;;;;;2.73;1.30;;;21.00;80.30;20.30;96312.00;;;;5044362;28;20213;-82
2023/08/31 11:17:52;;;;;;;1.90;1.00;;;21.00;79.60;20.30;96313.00;;;;5026335;28;20666;-82
2023/08/31 11:20:23;;;;;;;1.77;1.30;;;21.00;80.00;20.40;96313.00;;;;5023015;28;20295;-82
2023/08/31 11:22:53;;;;;;;1.90;1.30;;;21.00;80.90;20.40;96311.00;;;;5024840;28;20290;-82
2023/08/31 11:25:23;;;;;;;1.23;1.03;;;21.00;80.80;20.50;96300.00;;;;5023279;28;20296;-82
2023/08/31 11:27:58;;;;;;;1.30;1.20;;;21.00;81.20;20.50;96296.00;;;;5027654;28;20679;-82
2023/08/31 11:30:27;;;;;;;2.07;1.30;;;21.10;79.20;20.60;96302.00;;;;5028503;28;20572;-83
2023/08/31 11:32:55;;;;;;;1.07;0.97;;;21.20;80.50;20.70;96303.00;;;;5035727;28;20766;-82
2023/08/31 11:35:24;;;;;;;2.50;1.23;;;21.20;80.00;20.70;96297.00;;;;5028303;28;20706;-82
2023/08/31 11:37:56;;;;;;;1.67;0.87;;;21.20;79.10;20.70;96299.00;;;;5034102;28;20296;-83
2023/08/31 11:40:27;;;;;;;1.40;1.10;;;21.30;78.50;20.80;96296.00;;;;5038147;28;20204;-82
2023/08/31 11:42:54;;;;;;;1.50;1.40;;;21.30;78.50;20.80;96298.00;;;;5037082;28;20587;-83
2023/08/31 11:45:25;;;;;;;1.33;0.97;;;21.30;80.00;20.80;96298.00;;;;5036297;28;20611;-82
2023/08/31 11:47:55;;;;;;;1.63;1.13;;;21.30;78.80;20.80;96301.00;;;;5001577;28;20634;-82
2023/08/31 11:50:25;;;;;;;2.10;1.00;;;21.40;79.20;20.90;96302.00;;;;5017079;28;20214;-82
2023/08/31 11:52:53;;;;;;;1.07;1.07;;;21.40;78.50;20.90;96309.00;;;;5037215;28;20221;-82
2023/08/31 11:55:21;;;;;;;1.70;1.00;;;21.40;79.00;20.90;96313.00;;;;5012685;28;20595;-82
2023/08/31 11:57:56;;;;;;;1.17;0.90;;;21.40;79.30;20.90;96320.00;;;;5028880;28;20247;-82
2023/08/31 12:00:24;;;;;;;1.40;0.90;;;21.40;78.50;20.90;96314.00;;;;5028091;28;20201;-82
2023/08/31 12:02:58;;;;;;;2.00;1.10;;;21.50;79.30;20.90;96314.00;;;;5017603;28;20208;-82
2023/08/31 12:05:27;;;;;;;1.63;1.00;;;21.50;76.40;20.90;96313.00;;;;5018632;28;20237;-82
2023/08/31 12:07:55;;;;;;;3.13;1.23;;;21.40;77.50;20.80;96315.00;;;;5028755;28;20261;-82
2023/08/31 12:10:25;;;;;;;1.17;1.00;;;21.40;77.60;20.80;96315.00;;;;5019004;28;20321;-82
2023/08/31 12:12:55;;;;;;;1.47;1.00;;;21.40;77.40;20.80;96318.00;;;;5030121;28;20231;-81
2023/08/31 12:15:23;;;;;;;1.43;1.03;;;21.40;77.00;20.80;96321.00;;;;5023749;28;20639;-82
2023/08/31 12:17:54;;;;;;;1.67;1.10;;;21.40;77.10;20.80;96326.00;;;;5012193;28;20194;-82
2023/08/31 12:20:27;;;;;;;2.83;1.10;;;21.40;77.10;20.80;96322.00;;;;5038299;28;20194;-82
2023/08/31 12:22:54;;;;;;;0.90;0.90;;;21.40;75.50;20.80;96331.00;;;;5019852;28;20201;-81
2023/08/31 12:25:22;;;;;;;1.87;1.07;;;21.40;77.30;20.80;96329.00;;;;5031429;28;20218;-81
2023/08/31 12:27:49;;;;;;;0.93;0.93;;;21.40;76.80;20.80;96333.00;;;;5019213;28;20199;-82
2023/08/31 12:30:18;;;;;;;2.83;1.40;;;21.40;76.40;20.80;96340.00;;;;5023903;28;20269;-82
2023/08/31 12:32:45;;;;;;;1.07;0.90;;;21.40;75.00;20.80;96342.00;;;;5031651;28;20233;-82
2023/08/31 12:35:14;;;;;;;1.03;0.97;;;21.40;75.90;20.80;96336.00;;;;5041272;28;20221;-83